createdAt,value
2018-10-17T00:00:43.098Z,63.60
2018-10-17T00:03:12.450Z,68.60
2018-10-17T00:05:42.104Z,70.30
2018-10-17T00:08:11.907Z,76.23
2018-10-17T00:10:41.310Z,70.20
2018-10-17T00:13:11.024Z,79.13
2018-10-17T00:15:40.250Z,74.93
2018-10-17T00:18:09.551Z,78.27
2018-10-17T00:20:39.080Z,79.00
2018-10-17T00:23:08.766Z,78.97
2018-10-17T00:25:38.004Z,77.87
2018-10-17T00:28:07.550Z,77.97
2018-10-17T00:30:37.177Z,74.77
2018-10-17T00:33:06.465Z,74.20
2018-10-17T00:35:35.987Z,70.87
2018-10-17T00:38:05.728Z,61.37
2018-10-17T00:40:35.437Z,67.17
2018-10-17T00:43:05.531Z,64.30
2018-10-17T00:45:34.916Z,73.20
2018-10-17T00:48:04.226Z,66.47
2018-10-17T00:50:33.706Z,64.50
2018-10-17T00:53:03.447Z,60.03
2018-10-17T00:55:32.941Z,65.27
2018-10-17T00:58:02.666Z,66.70
2018-10-17T01:00:32.109Z,66.40
2018-10-17T01:03:01.680Z,63.17
2018-10-17T01:05:31.071Z,67.73
2018-10-17T01:08:00.335Z,61.90
2018-10-17T01:10:29.777Z,62.73
2018-10-17T01:12:59.479Z,65.83
2018-10-17T01:15:28.792Z,68.50
2018-10-17T01:17:58.237Z,63.93
2018-10-17T01:20:27.781Z,70.27
2018-10-17T01:22:57.320Z,63.53
2018-10-17T01:25:26.972Z,64.63
2018-10-17T01:27:56.407Z,64.50
2018-10-17T01:30:25.715Z,63.90
2018-10-17T01:32:55.086Z,63.50
2018-10-17T01:35:24.865Z,68.37
2018-10-17T01:37:54.210Z,70.43
2018-10-17T01:40:23.656Z,69.90
2018-10-17T01:42:53.292Z,63.67
2018-10-17T01:45:22.883Z,68.80
2018-10-17T01:47:52.266Z,63.90
2018-10-17T01:50:21.855Z,62.60
2018-10-17T01:52:51.159Z,67.63
2018-10-17T01:55:20.815Z,62.77
2018-10-17T01:57:50.584Z,70.23
2018-10-17T02:00:20.107Z,68.17
2018-10-17T02:02:49.421Z,65.27
2018-10-17T02:05:19.286Z,69.63
2018-10-17T02:07:48.583Z,67.93
2018-10-17T02:10:19.062Z,70.00
2018-10-17T02:12:49.346Z,62.17
2018-10-17T02:15:18.509Z,64.37
2018-10-17T02:17:48.076Z,66.77
2018-10-17T02:20:18.279Z,70.73
2018-10-17T02:22:47.855Z,74.37
2018-10-17T02:25:17.082Z,65.13
2018-10-17T02:27:46.791Z,74.03
2018-10-17T02:30:16.224Z,68.90
2018-10-17T02:32:45.583Z,71.30
2018-10-17T02:35:15.901Z,73.47
2018-10-17T02:37:45.442Z,68.63
2018-10-17T02:40:14.717Z,74.00
2018-10-17T02:42:44.362Z,74.37
2018-10-17T02:45:14.482Z,73.23
2018-10-17T02:47:43.728Z,69.20
2018-10-17T02:50:13.686Z,71.00
2018-10-17T02:52:43.537Z,65.07
2018-10-17T02:55:12.968Z,69.73
2018-10-17T02:57:42.603Z,74.37
2018-10-17T03:00:11.844Z,69.33
2018-10-17T03:02:41.402Z,68.90
2018-10-17T03:05:11.401Z,68.97
2018-10-17T03:07:40.814Z,68.37
2018-10-17T03:10:10.147Z,72.90
2018-10-17T03:12:40.108Z,73.73
2018-10-17T03:15:10.098Z,70.60
2018-10-17T03:17:39.247Z,64.33
2018-10-17T03:20:10.007Z,74.10
2018-10-17T03:22:39.613Z,69.77
2018-10-17T03:25:09.995Z,77.27
2018-10-17T03:27:39.817Z,69.93
2018-10-17T03:30:09.362Z,72.27
2018-10-17T03:32:38.620Z,69.77
2018-10-17T03:35:08.564Z,67.90
2018-10-17T03:37:37.879Z,71.93
2018-10-17T03:40:07.400Z,71.90
2018-10-17T03:42:36.947Z,77.57
2018-10-17T03:45:06.988Z,69.90
2018-10-17T03:47:36.362Z,70.70
2018-10-17T03:50:06.400Z,77.67
2018-10-17T03:52:35.604Z,76.63
2018-10-17T03:55:04.993Z,69.93
2018-10-17T03:57:34.690Z,78.97
2018-10-17T04:00:04.357Z,73.60
2018-10-17T04:02:33.816Z,71.60
2018-10-17T04:05:03.747Z,73.40
2018-10-17T04:07:33.253Z,71.97
2018-10-17T04:10:02.782Z,74.83
2018-10-17T04:12:32.595Z,75.50
2018-10-17T04:15:02.030Z,74.77
2018-10-17T04:17:31.476Z,73.93
2018-10-17T04:20:00.819Z,72.87
2018-10-17T04:22:30.363Z,73.50
2018-10-17T04:24:59.820Z,73.67
2018-10-17T04:27:29.556Z,74.73
2018-10-17T04:29:59.012Z,79.23
2018-10-17T04:32:28.644Z,74.67
2018-10-17T04:34:58.370Z,78.03
2018-10-17T04:37:27.722Z,81.80
2018-10-17T04:39:57.317Z,83.13
2018-10-17T04:42:27.300Z,90.23
2018-10-17T04:44:56.477Z,82.73
2018-10-17T04:47:26.049Z,82.97
2018-10-17T04:49:55.951Z,80.00
2018-10-17T04:52:25.331Z,84.80
2018-10-17T04:54:54.931Z,86.23
2018-10-17T04:57:24.486Z,91.20
2018-10-17T04:59:53.759Z,92.43
2018-10-17T05:02:23.352Z,86.83
2018-10-17T05:04:53.078Z,85.80
2018-10-17T05:07:22.415Z,85.83
2018-10-17T05:09:52.171Z,90.23
2018-10-17T05:12:21.763Z,94.20
2018-10-17T05:14:51.112Z,88.17
2018-10-17T05:17:21.266Z,88.40
2018-10-17T05:19:51.457Z,93.33
2018-10-17T05:22:21.067Z,93.97
2018-10-17T05:24:50.634Z,91.40
2018-10-17T05:27:20.438Z,93.90
2018-10-17T05:29:49.979Z,87.23
2018-10-17T05:32:19.409Z,88.33
2018-10-17T05:34:49.277Z,91.33
2018-10-17T05:37:19.273Z,95.03
2018-10-17T05:39:48.924Z,89.53
2018-10-17T05:42:18.922Z,89.53
2018-10-17T05:44:48.229Z,98.17
2018-10-17T05:47:17.686Z,97.33
2018-10-17T05:49:47.899Z,101.87
2018-10-17T05:52:17.448Z,99.87
2018-10-17T05:54:46.797Z,97.20
2018-10-17T05:57:16.327Z,106.40
2018-10-17T05:59:46.302Z,101.27
2018-10-17T06:02:18.972Z,91.47
2018-10-17T06:04:48.253Z,92.63
2018-10-17T06:07:17.748Z,100.70
2018-10-17T06:09:47.144Z,104.50
2018-10-17T06:12:16.753Z,102.67
2018-10-17T06:14:46.278Z,108.17
2018-10-17T06:17:15.643Z,102.30
2018-10-17T06:19:45.230Z,102.03
2018-10-17T06:22:14.777Z,104.63
2018-10-17T06:24:44.173Z,100.77
2018-10-17T06:27:13.651Z,106.00
2018-10-17T06:29:43.243Z,107.93
2018-10-17T06:32:12.579Z,109.90
2018-10-17T06:34:41.960Z,114.00
2018-10-17T06:37:11.760Z,108.63
2018-10-17T06:39:40.868Z,110.03
2018-10-17T06:42:10.565Z,105.47
2018-10-17T06:44:40.230Z,107.80
2018-10-17T06:47:09.799Z,115.60
2018-10-17T06:49:39.341Z,111.83
2018-10-17T06:52:08.733Z,108.63
2018-10-17T06:54:38.164Z,114.97
2018-10-17T06:57:07.779Z,112.87
2018-10-17T06:59:37.671Z,117.53
2018-10-17T07:02:07.377Z,115.93
2018-10-17T07:04:36.988Z,117.47
2018-10-17T07:07:06.606Z,113.87
2018-10-17T07:09:35.877Z,111.73
2018-10-17T07:12:05.442Z,119.13
2018-10-17T07:14:34.958Z,113.63
2018-10-17T07:17:05.138Z,106.03
2018-10-17T07:19:34.506Z,106.70
2018-10-17T07:22:04.313Z,115.47
2018-10-17T07:24:33.726Z,115.10
2018-10-17T07:27:03.219Z,111.60
2018-10-17T07:29:32.909Z,108.00
2018-10-17T07:32:02.116Z,112.33
2018-10-17T07:34:31.551Z,114.63
2018-10-17T07:37:01.068Z,120.63
2018-10-17T07:39:30.470Z,116.70
2018-10-17T07:42:00.128Z,103.47
2018-10-17T07:44:29.824Z,116.70
2018-10-17T07:46:59.080Z,118.37
2018-10-17T07:49:28.429Z,108.50
2018-10-17T07:51:58.001Z,92.60
2018-10-17T07:54:27.418Z,93.60
2018-10-17T07:56:56.967Z,98.93
2018-10-17T07:59:26.497Z,88.10
2018-10-17T08:01:56.013Z,84.50
2018-10-17T08:04:25.476Z,83.60
2018-10-17T08:06:54.809Z,85.40
2018-10-17T08:09:24.128Z,90.37
2018-10-17T08:11:53.952Z,81.80
2018-10-17T08:14:23.484Z,75.93
2018-10-17T08:16:53.205Z,86.43
2018-10-17T08:19:22.921Z,81.67
2018-10-17T08:21:52.392Z,87.67
2018-10-17T08:24:22.721Z,85.43
2018-10-17T08:26:52.226Z,80.50
2018-10-17T08:29:21.620Z,81.27
2018-10-17T08:31:51.277Z,81.83
2018-10-17T08:34:21.208Z,84.23
2018-10-17T08:36:50.776Z,80.50
2018-10-17T08:39:20.006Z,89.47
2018-10-17T08:41:49.650Z,74.60
2018-10-17T08:46:57.667Z,74.87
2018-10-17T08:49:27.228Z,76.70
2018-10-17T08:51:56.658Z,80.60
2018-10-17T08:54:26.857Z,66.50
2018-10-17T08:56:56.015Z,70.30
2018-10-17T08:59:25.424Z,73.13
2018-10-17T09:01:55.054Z,72.03
2018-10-17T09:04:24.534Z,70.50
2018-10-17T09:06:53.562Z,64.00
2018-10-17T09:09:23.616Z,60.70
2018-10-17T09:11:53.545Z,64.47
2018-10-17T09:14:23.060Z,63.17
2018-10-17T09:16:52.775Z,64.37
2018-10-17T09:19:22.367Z,62.27
2018-10-17T09:21:52.163Z,65.77
2018-10-17T09:24:21.844Z,62.60
2018-10-17T09:26:51.801Z,66.10
2018-10-17T09:29:21.428Z,57.07
2018-10-17T09:31:51.279Z,64.37
2018-10-17T09:34:21.517Z,64.37
2018-10-17T09:36:51.290Z,65.27
2018-10-17T09:39:20.985Z,64.40
2018-10-17T09:41:50.757Z,69.03
2018-10-17T09:44:20.415Z,70.13
2018-10-17T09:46:49.978Z,70.03
2018-10-17T09:49:19.873Z,64.67
2018-10-17T09:51:49.446Z,58.53
2018-10-17T09:54:18.916Z,57.97
2018-10-17T09:56:48.542Z,62.87
2018-10-17T09:59:18.092Z,63.57
2018-10-17T10:01:48.109Z,66.37
2018-10-17T10:04:17.606Z,65.37
2018-10-17T10:06:47.149Z,68.07
2018-10-17T10:09:16.536Z,66.10
2018-10-17T10:11:46.202Z,64.87
2018-10-17T10:14:15.742Z,65.57
2018-10-17T10:16:45.118Z,66.33
2018-10-17T10:19:14.469Z,66.97
2018-10-17T10:21:44.060Z,62.87
2018-10-17T10:24:13.497Z,62.83
2018-10-17T10:26:43.185Z,61.63
2018-10-17T10:29:12.549Z,63.63
2018-10-17T10:31:41.762Z,62.03
2018-10-17T10:34:11.155Z,66.50
2018-10-17T10:36:40.678Z,66.00
2018-10-17T10:39:12.484Z,62.00
2018-10-17T10:41:42.156Z,62.97
2018-10-17T10:44:11.560Z,64.13
2018-10-17T10:46:41.388Z,64.10
2018-10-17T10:49:11.302Z,63.20
2018-10-17T10:51:40.634Z,60.40
2018-10-17T10:54:11.530Z,62.57
2018-10-17T10:56:41.026Z,64.27
2018-10-17T10:59:10.344Z,61.97
2018-10-17T11:01:40.102Z,62.87
2018-10-17T11:04:09.377Z,63.57
2018-10-17T11:06:38.741Z,59.47
2018-10-17T11:09:09.428Z,60.20
2018-10-17T11:11:39.191Z,64.13
2018-10-17T11:14:09.336Z,68.47
2018-10-17T11:16:38.819Z,65.20
2018-10-17T11:19:08.313Z,59.03
2018-10-17T11:21:37.662Z,62.53
2018-10-17T11:24:07.531Z,59.83
2018-10-17T11:26:37.003Z,66.87
2018-10-17T11:29:07.506Z,62.13
2018-10-17T11:31:37.156Z,64.10
2018-10-17T11:34:06.774Z,65.90
2018-10-17T11:36:36.006Z,65.43
2018-10-17T11:39:07.747Z,60.10
2018-10-17T11:41:37.069Z,63.90
2018-10-17T11:44:07.233Z,64.90
2018-10-17T11:46:37.647Z,63.43
2018-10-17T11:49:07.125Z,61.20
2018-10-17T11:51:36.424Z,67.97
2018-10-17T11:54:06.611Z,64.37
2018-10-17T11:56:35.871Z,65.17
2018-10-17T11:59:05.554Z,63.40
2018-10-17T12:01:35.030Z,65.07
2018-10-17T12:04:04.555Z,64.60
2018-10-17T12:06:34.028Z,62.30
2018-10-17T12:09:03.751Z,62.53
2018-10-17T12:11:33.179Z,61.57
2018-10-17T12:14:03.052Z,65.30
2018-10-17T12:16:32.599Z,63.43
2018-10-17T12:19:02.025Z,63.80
2018-10-17T12:21:31.740Z,60.73
2018-10-17T12:24:01.381Z,61.80
2018-10-17T12:26:30.774Z,57.63
2018-10-17T12:29:00.441Z,57.47
2018-10-17T12:31:30.067Z,57.07
2018-10-17T12:33:59.465Z,52.70
2018-10-17T12:36:28.972Z,54.50
2018-10-17T12:38:58.564Z,58.27
2018-10-17T12:41:27.788Z,56.20
2018-10-17T12:43:57.326Z,58.70
2018-10-17T12:46:26.748Z,64.33
2018-10-17T12:48:56.427Z,57.80
2018-10-17T12:51:25.976Z,61.77
2018-10-17T12:53:55.425Z,60.30
2018-10-17T12:56:24.824Z,60.53
2018-10-17T12:58:54.531Z,55.83
2018-10-17T13:01:24.981Z,59.63
2018-10-17T13:03:55.735Z,62.10
2018-10-17T13:06:24.986Z,62.40
2018-10-17T13:08:54.438Z,58.37
2018-10-17T13:11:25.343Z,60.67
2018-10-17T13:13:54.732Z,57.67
2018-10-17T13:16:24.186Z,58.07
2018-10-17T13:18:53.966Z,60.33
2018-10-17T13:21:23.805Z,58.70
2018-10-17T13:23:53.630Z,55.43
2018-10-17T13:26:24.058Z,59.20
2018-10-17T13:28:53.308Z,55.53
2018-10-17T13:31:23.233Z,53.60
2018-10-17T13:33:52.912Z,60.40
2018-10-17T13:36:22.560Z,56.70
2018-10-17T13:38:52.038Z,58.37
2018-10-17T13:41:21.597Z,57.07
2018-10-17T13:43:51.050Z,53.37
2018-10-17T13:46:21.113Z,54.40
2018-10-17T13:48:50.611Z,58.83
2018-10-17T13:51:20.276Z,53.73
2018-10-17T13:53:49.988Z,54.27
2018-10-17T13:56:19.452Z,52.90
2018-10-17T13:58:49.125Z,51.43
2018-10-17T14:01:19.290Z,55.90
2018-10-17T14:03:48.735Z,53.33
2018-10-17T14:06:18.433Z,54.93
2018-10-17T14:08:48.104Z,53.90
2018-10-17T14:11:17.798Z,52.63
2018-10-17T14:13:47.063Z,52.40
2018-10-17T14:16:16.576Z,55.27
2018-10-17T14:18:46.172Z,58.70
2018-10-17T14:21:16.052Z,53.63
2018-10-17T14:23:45.869Z,48.43
2018-10-17T14:26:15.337Z,53.27
2018-10-17T14:28:45.167Z,52.70
2018-10-17T14:31:14.573Z,51.93
2018-10-17T14:33:43.913Z,52.27
2018-10-17T14:36:13.420Z,50.53
2018-10-17T14:38:43.016Z,52.50
2018-10-17T14:41:12.218Z,54.37
2018-10-17T14:43:41.836Z,54.93
2018-10-17T14:46:11.580Z,51.47
2018-10-17T14:48:41.039Z,51.53
2018-10-17T14:51:10.776Z,52.13
2018-10-17T14:53:40.433Z,49.93
2018-10-17T14:56:09.886Z,50.57
2018-10-17T14:58:39.473Z,50.03
2018-10-17T15:01:09.153Z,53.37
2018-10-17T15:03:38.839Z,60.23
2018-10-17T15:06:09.011Z,59.33
2018-10-17T15:08:38.611Z,55.40
2018-10-17T15:11:08.294Z,58.47
2018-10-17T15:13:38.626Z,57.33
2018-10-17T15:16:08.069Z,57.70
2018-10-17T15:18:37.647Z,59.07
2018-10-17T15:21:07.431Z,57.83
2018-10-17T15:23:37.415Z,52.07
2018-10-17T15:26:07.407Z,59.67
2018-10-17T15:28:37.112Z,61.53
2018-10-17T15:31:07.088Z,58.77
2018-10-17T15:33:37.114Z,63.57
2018-10-17T15:36:07.999Z,59.17
2018-10-17T15:38:37.645Z,59.60
2018-10-17T15:41:07.969Z,62.77
2018-10-17T15:43:38.233Z,64.53
2018-10-17T15:46:08.504Z,62.70
2018-10-17T15:48:38.203Z,62.60
2018-10-17T15:51:07.913Z,68.90
2018-10-17T15:53:37.392Z,61.20
2018-10-17T15:56:07.131Z,69.27
2018-10-17T15:58:36.810Z,66.27
2018-10-17T16:01:06.567Z,67.73
2018-10-17T16:03:37.285Z,67.33
2018-10-17T16:06:07.387Z,72.80
2018-10-17T16:08:36.747Z,66.37
2018-10-17T16:11:07.125Z,62.90
2018-10-17T16:13:37.268Z,72.53
2018-10-17T16:16:06.950Z,67.90
2018-10-17T16:18:36.408Z,67.30
2018-10-17T16:21:06.425Z,73.57
2018-10-17T16:23:36.142Z,75.00
2018-10-17T16:26:05.524Z,74.47
2018-10-17T16:28:35.356Z,69.57
2018-10-17T16:31:04.958Z,69.23
2018-10-17T16:33:34.186Z,73.50
2018-10-17T16:36:03.925Z,70.50
2018-10-17T16:38:33.394Z,74.70
2018-10-17T16:41:03.886Z,68.87
2018-10-17T16:43:33.596Z,75.30
2018-10-17T16:46:02.908Z,73.97
2018-10-17T16:48:32.395Z,72.73
2018-10-17T16:51:01.908Z,68.93
2018-10-17T16:53:31.392Z,73.83
2018-10-17T16:56:00.881Z,76.17
2018-10-17T16:58:30.566Z,71.50
2018-10-17T17:00:59.873Z,74.90
2018-10-17T17:03:29.314Z,75.40
2018-10-17T17:05:59.230Z,72.47
2018-10-17T17:08:28.648Z,72.27
2018-10-17T17:10:58.039Z,72.33
2018-10-17T17:13:27.697Z,76.07
2018-10-17T17:15:57.196Z,74.70
2018-10-17T17:18:26.684Z,69.93
2018-10-17T17:20:56.629Z,77.00
2018-10-17T17:23:26.249Z,75.33
2018-10-17T17:25:55.727Z,75.13
2018-10-17T17:28:25.507Z,81.10
2018-10-17T17:30:55.258Z,85.47
2018-10-17T17:33:24.681Z,81.53
2018-10-17T17:35:54.592Z,78.27
2018-10-17T17:38:24.590Z,84.83
2018-10-17T17:40:54.170Z,80.83
2018-10-17T17:43:23.831Z,80.83
2018-10-17T17:45:54.035Z,79.10
2018-10-17T17:48:24.702Z,75.63
2018-10-17T17:50:54.164Z,81.67
2018-10-17T17:53:23.766Z,85.27
2018-10-17T17:55:53.760Z,80.33
2018-10-17T17:58:23.573Z,86.40
2018-10-17T18:00:53.251Z,80.77
2018-10-17T18:03:23.247Z,88.13
2018-10-17T18:05:52.822Z,84.23
2018-10-17T18:08:22.967Z,86.00
2018-10-17T18:10:52.760Z,85.83
2018-10-17T18:13:22.145Z,81.60
2018-10-17T18:15:51.861Z,84.50
2018-10-17T18:18:22.264Z,82.63
2018-10-17T18:20:51.655Z,92.17
2018-10-17T18:23:21.654Z,82.10
2018-10-17T18:25:51.158Z,87.00
2018-10-17T18:28:20.911Z,89.00
2018-10-17T18:30:50.747Z,94.83
2018-10-17T18:33:21.026Z,88.77
2018-10-17T18:35:50.547Z,83.17
2018-10-17T18:38:20.903Z,92.93
2018-10-17T18:40:52.740Z,86.20
2018-10-17T18:43:22.724Z,86.57
2018-10-17T18:45:52.686Z,84.70
2018-10-17T18:48:22.797Z,84.77
2018-10-17T18:50:52.626Z,92.80
2018-10-17T18:53:22.363Z,89.20
2018-10-17T18:55:52.429Z,87.80
2018-10-17T18:58:22.354Z,84.37
2018-10-17T19:00:52.156Z,86.57
2018-10-17T19:03:22.418Z,91.10
2018-10-17T19:05:52.301Z,84.83
2018-10-17T19:08:22.576Z,91.67
2018-10-17T19:10:51.975Z,98.13
2018-10-17T19:13:21.670Z,99.90
2018-10-17T19:15:51.296Z,95.93
2018-10-17T19:18:21.155Z,95.47
2018-10-17T19:20:50.317Z,105.17
2018-10-17T19:23:20.371Z,98.83
2018-10-17T19:25:50.494Z,96.90
2018-10-17T19:28:19.930Z,102.77
2018-10-17T19:30:49.909Z,99.97
2018-10-17T19:33:19.558Z,102.23
2018-10-17T19:35:48.740Z,106.10
2018-10-17T19:38:18.428Z,106.77
2018-10-17T19:40:48.649Z,100.30
2018-10-17T19:43:18.311Z,106.23
2018-10-17T19:45:47.925Z,102.73
2018-10-17T19:48:17.353Z,109.60
2018-10-17T19:50:46.738Z,114.87
2018-10-17T19:53:17.577Z,114.50
2018-10-17T19:55:47.245Z,109.97
2018-10-17T19:58:16.548Z,112.93
2018-10-17T20:00:46.192Z,115.03
2018-10-17T20:03:16.124Z,97.03
2018-10-17T20:05:45.945Z,92.87
2018-10-17T20:08:15.458Z,74.60
2018-10-17T20:10:44.967Z,71.03
2018-10-17T20:13:14.229Z,69.33
2018-10-17T20:15:44.199Z,76.47
2018-10-17T20:18:13.952Z,61.50
2018-10-17T20:20:43.931Z,57.00
2018-10-17T20:23:13.421Z,49.27
2018-10-17T20:25:42.949Z,57.10
2018-10-17T20:28:12.240Z,58.17
2018-10-17T20:30:41.793Z,48.77
2018-10-17T20:33:11.665Z,50.03
2018-10-17T20:35:41.457Z,48.00
2018-10-17T20:38:11.179Z,44.07
2018-10-17T20:40:40.822Z,41.20
2018-10-17T20:43:10.370Z,42.80
2018-10-17T20:45:40.755Z,40.83
2018-10-17T20:48:10.490Z,38.23
2018-10-17T20:50:44.379Z,40.07
2018-10-17T20:53:13.955Z,37.80
2018-10-17T20:55:43.720Z,36.50
2018-10-17T20:58:13.637Z,34.00
2018-10-17T21:00:43.968Z,34.63
2018-10-17T21:03:14.049Z,31.43
2018-10-17T21:05:44.209Z,33.40
2018-10-17T21:08:14.471Z,36.07
2018-10-17T21:10:44.826Z,36.10
2018-10-17T21:13:14.722Z,38.53
2018-10-17T21:15:44.700Z,41.23
2018-10-17T21:18:14.629Z,38.53
2018-10-17T21:20:45.338Z,39.23
2018-10-17T21:23:15.230Z,36.43
2018-10-17T21:25:44.808Z,39.57
2018-10-17T21:28:15.619Z,39.50
2018-10-17T21:30:45.777Z,37.70
2018-10-17T21:33:15.301Z,37.60
2018-10-17T21:35:45.801Z,33.40
2018-10-17T21:38:15.650Z,39.43
2018-10-17T21:40:45.305Z,36.53
2018-10-17T21:43:15.453Z,35.47
2018-10-17T21:45:46.105Z,37.70
2018-10-17T21:48:16.953Z,36.40
2018-10-17T21:50:47.640Z,37.40
2018-10-17T21:53:18.878Z,34.63
2018-10-17T21:55:48.599Z,36.10
2018-10-17T21:58:18.240Z,38.67
2018-10-17T22:00:48.159Z,37.17
2018-10-17T22:03:21.927Z,41.53
2018-10-17T22:05:54.638Z,41.03
2018-10-17T22:08:24.058Z,33.77
2018-10-17T22:10:54.651Z,33.57
2018-10-17T22:13:25.996Z,31.93
2018-10-17T22:15:56.240Z,35.07
2018-10-17T22:18:26.222Z,33.30
2018-10-17T22:20:56.198Z,32.93
2018-10-17T22:23:26.232Z,34.50
2018-10-17T22:25:56.104Z,31.77
2018-10-17T22:28:26.425Z,27.63
2018-10-17T22:30:56.735Z,30.33
2018-10-17T22:33:26.460Z,32.10
2018-10-17T22:35:56.470Z,29.80
2018-10-17T22:38:26.000Z,29.73
2018-10-17T22:40:55.659Z,31.23
2018-10-17T22:43:25.784Z,30.57
2018-10-17T22:45:55.556Z,31.43
2018-10-17T22:48:25.476Z,27.70
2018-10-17T22:50:55.303Z,31.33
2018-10-17T22:53:24.962Z,30.47
2018-10-17T22:55:54.791Z,33.40
2018-10-17T22:58:24.463Z,32.37
2018-10-17T23:00:53.909Z,33.27
2018-10-17T23:03:23.361Z,29.10
2018-10-17T23:05:53.519Z,37.20
2018-10-17T23:08:23.165Z,32.43
2018-10-17T23:10:52.898Z,33.93
2018-10-17T23:13:22.826Z,31.87
2018-10-17T23:15:52.533Z,36.63
2018-10-17T23:18:22.279Z,34.23
2018-10-17T23:20:51.972Z,36.27
2018-10-17T23:23:21.573Z,35.73
2018-10-17T23:25:51.335Z,36.07
2018-10-17T23:28:21.498Z,36.87
2018-10-17T23:30:51.003Z,35.53
2018-10-17T23:33:21.039Z,33.07
2018-10-17T23:35:51.115Z,33.23
2018-10-17T23:38:20.947Z,34.03
2018-10-17T23:40:50.534Z,33.77
2018-10-17T23:43:19.953Z,35.00
2018-10-17T23:45:49.421Z,35.83
2018-10-17T23:48:19.032Z,32.10
2018-10-17T23:50:49.074Z,33.73
2018-10-17T23:53:18.853Z,34.47
2018-10-17T23:55:48.488Z,29.50
2018-10-17T23:58:18.203Z,32.50
